sensor_id;sensor_type;location;lat;lon;timestamp;P1;durP1;ratioP1;P2;durP2;ratioP2
21987;SDS011;11158;53.404;-1.510;2023-08-17T00:01:06;5.53;;;3.03;;
21987;SDS011;11158;53.404;-1.510;2023-08-17T00:03:50;3.40;;;2.83;;
21987;SDS011;11158;53.404;-1.510;2023-08-17T00:06:34;5.07;;;2.92;;
21987;SDS011;11158;53.404;-1.510;2023-08-17T00:09:18;3.50;;;2.97;;
21987;SDS011;11158;53.404;-1.510;2023-08-17T00:12:02;5.75;;;3.65;;
21987;SDS011;11158;53.404;-1.510;2023-08-17T00:14:47;4.93;;;3.60;;
21987;SDS011;11158;53.404;-1.510;2023-08-17T00:17:31;4.90;;;3.30;;
21987;SDS011;11158;53.404;-1.510;2023-08-17T00:20:15;5.18;;;3.22;;
21987;SDS011;11158;53.404;-1.510;2023-08-17T00:23:00;6.88;;;3.53;;
21987;SDS011;11158;53.404;-1.510;2023-08-17T00:25:44;4.70;;;3.15;;
21987;SDS011;11158;53.404;-1.510;2023-08-17T00:28:28;5.22;;;3.50;;
21987;SDS011;11158;53.404;-1.510;2023-08-17T00:31:12;7.60;;;6.38;;
21987;SDS011;11158;53.404;-1.510;2023-08-17T00:33:56;10.60;;;7.18;;
21987;SDS011;11158;53.404;-1.510;2023-08-17T00:36:40;12.98;;;8.02;;
21987;SDS011;11158;53.404;-1.510;2023-08-17T00:39:24;18.00;;;13.80;;
21987;SDS011;11158;53.404;-1.510;2023-08-17T00:42:08;17.95;;;14.15;;
21987;SDS011;11158;53.404;-1.510;2023-08-17T00:44:52;20.45;;;15.23;;
21987;SDS011;11158;53.404;-1.510;2023-08-17T00:47:36;22.40;;;16.55;;
21987;SDS011;11158;53.404;-1.510;2023-08-17T00:50:21;24.85;;;18.00;;
21987;SDS011;11158;53.404;-1.510;2023-08-17T00:53:06;27.00;;;17.85;;
21987;SDS011;11158;53.404;-1.510;2023-08-17T00:55:50;7.63;;;5.82;;
21987;SDS011;11158;53.404;-1.510;2023-08-17T00:58:36;14.52;;;6.80;;
21987;SDS011;11158;53.404;-1.510;2023-08-17T01:01:21;13.40;;;7.60;;
21987;SDS011;11158;53.404;-1.510;2023-08-17T01:04:06;16.88;;;9.80;;
21987;SDS011;11158;53.404;-1.510;2023-08-17T01:06:50;18.30;;;10.02;;
21987;SDS011;11158;53.404;-1.510;2023-08-17T01:09:34;15.15;;;10.75;;
21987;SDS011;11158;53.404;-1.510;2023-08-17T01:12:32;29.17;;;18.52;;
21987;SDS011;11158;53.404;-1.510;2023-08-17T01:15:31;28.80;;;20.03;;
21987;SDS011;11158;53.404;-1.510;2023-08-17T01:18:23;34.33;;;22.90;;
21987;SDS011;11158;53.404;-1.510;2023-08-17T01:21:10;31.92;;;18.77;;
21987;SDS011;11158;53.404;-1.510;2023-08-17T01:24:00;40.03;;;23.65;;
21987;SDS011;11158;53.404;-1.510;2023-08-17T01:26:47;36.35;;;23.67;;
21987;SDS011;11158;53.404;-1.510;2023-08-17T01:29:32;38.38;;;22.85;;
21987;SDS011;11158;53.404;-1.510;2023-08-17T01:35:21;38.95;;;22.80;;
21987;SDS011;11158;53.404;-1.510;2023-08-17T01:38:22;40.40;;;24.70;;
21987;SDS011;11158;53.404;-1.510;2023-08-17T01:41:09;32.60;;;20.80;;
21987;SDS011;11158;53.404;-1.510;2023-08-17T01:43:57;22.05;;;14.40;;
21987;SDS011;11158;53.404;-1.510;2023-08-17T01:46:43;19.90;;;13.05;;
21987;SDS011;11158;53.404;-1.510;2023-08-17T01:49:27;32.30;;;19.80;;
21987;SDS011;11158;53.404;-1.510;2023-08-17T01:52:11;37.33;;;23.73;;
21987;SDS011;11158;53.404;-1.510;2023-08-17T01:54:55;39.42;;;23.88;;
21987;SDS011;11158;53.404;-1.510;2023-08-17T01:57:39;44.00;;;25.98;;
21987;SDS011;11158;53.404;-1.510;2023-08-17T02:00:23;41.83;;;24.85;;
21987;SDS011;11158;53.404;-1.510;2023-08-17T02:03:07;40.75;;;25.63;;
21987;SDS011;11158;53.404;-1.510;2023-08-17T02:05:51;39.35;;;26.58;;
21987;SDS011;11158;53.404;-1.510;2023-08-17T02:08:36;45.42;;;27.85;;
21987;SDS011;11158;53.404;-1.510;2023-08-17T02:11:21;48.90;;;26.60;;
21987;SDS011;11158;53.404;-1.510;2023-08-17T02:14:05;44.67;;;26.50;;
21987;SDS011;11158;53.404;-1.510;2023-08-17T02:16:49;41.00;;;24.45;;
21987;SDS011;11158;53.404;-1.510;2023-08-17T02:19:33;43.78;;;24.55;;
21987;SDS011;11158;53.404;-1.510;2023-08-17T02:22:17;49.88;;;26.85;;
21987;SDS011;11158;53.404;-1.510;2023-08-17T02:25:01;44.10;;;27.08;;
21987;SDS011;11158;53.404;-1.510;2023-08-17T02:27:45;47.42;;;27.15;;
21987;SDS011;11158;53.404;-1.510;2023-08-17T02:30:29;42.92;;;25.25;;
21987;SDS011;11158;53.404;-1.510;2023-08-17T02:33:13;44.85;;;24.95;;
21987;SDS011;11158;53.404;-1.510;2023-08-17T02:35:57;41.22;;;24.58;;
21987;SDS011;11158;53.404;-1.510;2023-08-17T02:38:41;41.88;;;25.98;;
21987;SDS011;11158;53.404;-1.510;2023-08-17T02:41:25;44.33;;;24.75;;
21987;SDS011;11158;53.404;-1.510;2023-08-17T02:44:09;40.50;;;24.40;;
21987;SDS011;11158;53.404;-1.510;2023-08-17T02:46:54;43.28;;;26.95;;
21987;SDS011;11158;53.404;-1.510;2023-08-17T02:49:38;43.58;;;26.40;;
21987;SDS011;11158;53.404;-1.510;2023-08-17T02:52:23;39.95;;;25.73;;
21987;SDS011;11158;53.404;-1.510;2023-08-17T02:55:07;39.65;;;25.13;;
21987;SDS011;11158;53.404;-1.510;2023-08-17T02:57:51;46.58;;;28.23;;
21987;SDS011;11158;53.404;-1.510;2023-08-17T03:00:35;50.47;;;28.55;;
21987;SDS011;11158;53.404;-1.510;2023-08-17T03:03:19;48.65;;;28.15;;
21987;SDS011;11158;53.404;-1.510;2023-08-17T03:06:04;49.40;;;28.52;;
21987;SDS011;11158;53.404;-1.510;2023-08-17T03:08:48;45.42;;;27.98;;
21987;SDS011;11158;53.404;-1.510;2023-08-17T03:11:33;46.53;;;28.23;;
21987;SDS011;11158;53.404;-1.510;2023-08-17T03:14:17;54.35;;;29.65;;
21987;SDS011;11158;53.404;-1.510;2023-08-17T03:17:01;42.80;;;28.35;;
21987;SDS011;11158;53.404;-1.510;2023-08-17T03:19:45;46.72;;;30.42;;
21987;SDS011;11158;53.404;-1.510;2023-08-17T03:22:29;45.22;;;29.88;;
21987;SDS011;11158;53.404;-1.510;2023-08-17T03:25:13;51.40;;;30.58;;
21987;SDS011;11158;53.404;-1.510;2023-08-17T03:27:57;52.55;;;33.10;;
21987;SDS011;11158;53.404;-1.510;2023-08-17T03:30:41;60.35;;;33.67;;
21987;SDS011;11158;53.404;-1.510;2023-08-17T03:33:25;59.10;;;33.35;;
21987;SDS011;11158;53.404;-1.510;2023-08-17T03:36:08;55.42;;;33.22;;
21987;SDS011;11158;53.404;-1.510;2023-08-17T03:38:53;59.13;;;33.47;;
21987;SDS011;11158;53.404;-1.510;2023-08-17T03:41:37;60.95;;;33.70;;
21987;SDS011;11158;53.404;-1.510;2023-08-17T03:44:21;64.32;;;34.45;;
21987;SDS011;11158;53.404;-1.510;2023-08-17T03:47:05;56.03;;;35.00;;
21987;SDS011;11158;53.404;-1.510;2023-08-17T03:49:51;58.00;;;35.38;;
21987;SDS011;11158;53.404;-1.510;2023-08-17T03:52:35;56.17;;;34.22;;
21987;SDS011;11158;53.404;-1.510;2023-08-17T03:55:20;61.80;;;34.80;;
21987;SDS011;11158;53.404;-1.510;2023-08-17T03:58:04;56.17;;;34.97;;
21987;SDS011;11158;53.404;-1.510;2023-08-17T04:00:49;55.25;;;33.75;;
21987;SDS011;11158;53.404;-1.510;2023-08-17T04:03:34;54.45;;;34.53;;
21987;SDS011;11158;53.404;-1.510;2023-08-17T04:06:18;59.78;;;34.60;;
21987;SDS011;11158;53.404;-1.510;2023-08-17T04:09:02;50.75;;;32.78;;
21987;SDS011;11158;53.404;-1.510;2023-08-17T04:11:47;56.28;;;34.42;;
21987;SDS011;11158;53.404;-1.510;2023-08-17T04:14:31;53.80;;;32.42;;
21987;SDS011;11158;53.404;-1.510;2023-08-17T04:17:15;47.50;;;31.55;;
21987;SDS011;11158;53.404;-1.510;2023-08-17T04:19:59;52.03;;;33.55;;
21987;SDS011;11158;53.404;-1.510;2023-08-17T04:22:43;55.13;;;34.53;;
21987;SDS011;11158;53.404;-1.510;2023-08-17T04:25:27;53.20;;;34.88;;
21987;SDS011;11158;53.404;-1.510;2023-08-17T04:28:11;53.63;;;33.40;;
21987;SDS011;11158;53.404;-1.510;2023-08-17T04:30:55;52.13;;;34.72;;
21987;SDS011;11158;53.404;-1.510;2023-08-17T04:33:39;59.33;;;34.45;;
21987;SDS011;11158;53.404;-1.510;2023-08-17T04:36:24;57.55;;;34.20;;
21987;SDS011;11158;53.404;-1.510;2023-08-17T04:39:08;55.70;;;34.22;;
21987;SDS011;11158;53.404;-1.510;2023-08-17T04:41:53;56.28;;;33.83;;
21987;SDS011;11158;53.404;-1.510;2023-08-17T04:44:37;53.30;;;33.90;;
21987;SDS011;11158;53.404;-1.510;2023-08-17T04:47:21;55.38;;;32.97;;
21987;SDS011;11158;53.404;-1.510;2023-08-17T04:50:05;49.92;;;30.75;;
21987;SDS011;11158;53.404;-1.510;2023-08-17T04:52:50;49.35;;;31.25;;
21987;SDS011;11158;53.404;-1.510;2023-08-17T04:55:34;47.35;;;30.92;;
21987;SDS011;11158;53.404;-1.510;2023-08-17T04:58:18;49.97;;;30.73;;
21987;SDS011;11158;53.404;-1.510;2023-08-17T05:01:02;45.25;;;30.63;;
21987;SDS011;11158;53.404;-1.510;2023-08-17T05:03:47;40.08;;;27.52;;
21987;SDS011;11158;53.404;-1.510;2023-08-17T05:06:31;43.38;;;27.23;;
21987;SDS011;11158;53.404;-1.510;2023-08-17T05:09:15;39.85;;;27.73;;
21987;SDS011;11158;53.404;-1.510;2023-08-17T05:11:59;40.25;;;26.80;;
21987;SDS011;11158;53.404;-1.510;2023-08-17T05:14:43;34.75;;;24.42;;
21987;SDS011;11158;53.404;-1.510;2023-08-17T05:17:27;35.30;;;25.23;;
21987;SDS011;11158;53.404;-1.510;2023-08-17T05:20:11;36.22;;;26.92;;
21987;SDS011;11158;53.404;-1.510;2023-08-17T05:22:59;41.72;;;27.35;;
21987;SDS011;11158;53.404;-1.510;2023-08-17T05:25:45;37.00;;;26.42;;
21987;SDS011;11158;53.404;-1.510;2023-08-17T05:28:31;39.30;;;25.65;;
21987;SDS011;11158;53.404;-1.510;2023-08-17T05:31:15;36.92;;;25.42;;
21987;SDS011;11158;53.404;-1.510;2023-08-17T05:33:59;34.30;;;24.48;;
21987;SDS011;11158;53.404;-1.510;2023-08-17T05:36:43;33.05;;;23.80;;
21987;SDS011;11158;53.404;-1.510;2023-08-17T05:39:27;33.33;;;24.30;;
21987;SDS011;11158;53.404;-1.510;2023-08-17T05:42:12;37.42;;;22.73;;
21987;SDS011;11158;53.404;-1.510;2023-08-17T05:44:56;29.92;;;22.38;;
21987;SDS011;11158;53.404;-1.510;2023-08-17T05:47:40;30.75;;;22.48;;
21987;SDS011;11158;53.404;-1.510;2023-08-17T05:50:24;31.33;;;22.40;;
21987;SDS011;11158;53.404;-1.510;2023-08-17T05:53:08;32.88;;;21.95;;
21987;SDS011;11158;53.404;-1.510;2023-08-17T05:55:52;34.53;;;23.45;;
21987;SDS011;11158;53.404;-1.510;2023-08-17T05:58:36;31.48;;;22.17;;
21987;SDS011;11158;53.404;-1.510;2023-08-17T06:01:21;36.30;;;23.05;;
21987;SDS011;11158;53.404;-1.510;2023-08-17T06:04:05;32.75;;;21.77;;
21987;SDS011;11158;53.404;-1.510;2023-08-17T06:06:50;29.25;;;19.83;;
21987;SDS011;11158;53.404;-1.510;2023-08-17T06:09:34;29.58;;;19.10;;
21987;SDS011;11158;53.404;-1.510;2023-08-17T06:12:18;26.90;;;18.75;;
21987;SDS011;11158;53.404;-1.510;2023-08-17T06:15:02;26.67;;;17.85;;
21987;SDS011;11158;53.404;-1.510;2023-08-17T06:17:47;30.48;;;18.13;;
21987;SDS011;11158;53.404;-1.510;2023-08-17T06:20:34;22.27;;;15.50;;
21987;SDS011;11158;53.404;-1.510;2023-08-17T06:23:18;19.92;;;15.32;;
21987;SDS011;11158;53.404;-1.510;2023-08-17T06:26:02;24.48;;;15.15;;
21987;SDS011;11158;53.404;-1.510;2023-08-17T06:28:46;18.58;;;14.10;;
21987;SDS011;11158;53.404;-1.510;2023-08-17T06:31:30;20.67;;;13.38;;
21987;SDS011;11158;53.404;-1.510;2023-08-17T06:34:14;16.75;;;12.80;;
21987;SDS011;11158;53.404;-1.510;2023-08-17T06:37:00;18.20;;;12.73;;
21987;SDS011;11158;53.404;-1.510;2023-08-17T06:39:46;21.05;;;12.15;;
21987;SDS011;11158;53.404;-1.510;2023-08-17T06:42:31;17.63;;;10.73;;
21987;SDS011;11158;53.404;-1.510;2023-08-17T06:45:16;12.75;;;10.52;;
21987;SDS011;11158;53.404;-1.510;2023-08-17T06:48:02;16.23;;;9.50;;
21987;SDS011;11158;53.404;-1.510;2023-08-17T06:50:47;13.73;;;9.18;;
21987;SDS011;11158;53.404;-1.510;2023-08-17T06:53:31;13.73;;;8.70;;
21987;SDS011;11158;53.404;-1.510;2023-08-17T06:56:15;12.68;;;7.72;;
21987;SDS011;11158;53.404;-1.510;2023-08-17T06:59:00;14.05;;;7.60;;
21987;SDS011;11158;53.404;-1.510;2023-08-17T07:01:44;13.00;;;6.47;;
21987;SDS011;11158;53.404;-1.510;2023-08-17T07:04:29;17.25;;;6.30;;
21987;SDS011;11158;53.404;-1.510;2023-08-17T07:07:13;13.30;;;5.63;;
21987;SDS011;11158;53.404;-1.510;2023-08-17T07:09:57;13.10;;;5.25;;
21987;SDS011;11158;53.404;-1.510;2023-08-17T07:12:43;11.65;;;6.35;;
21987;SDS011;11158;53.404;-1.510;2023-08-17T07:15:29;9.57;;;6.22;;
21987;SDS011;11158;53.404;-1.510;2023-08-17T07:18:14;12.60;;;5.57;;
21987;SDS011;11158;53.404;-1.510;2023-08-17T07:20:58;11.52;;;5.47;;
21987;SDS011;11158;53.404;-1.510;2023-08-17T07:23:44;15.60;;;6.13;;
21987;SDS011;11158;53.404;-1.510;2023-08-17T07:26:29;11.18;;;5.15;;
21987;SDS011;11158;53.404;-1.510;2023-08-17T07:29:13;10.05;;;5.03;;
21987;SDS011;11158;53.404;-1.510;2023-08-17T07:31:57;12.05;;;4.80;;
21987;SDS011;11158;53.404;-1.510;2023-08-17T07:34:45;13.27;;;5.40;;
21987;SDS011;11158;53.404;-1.510;2023-08-17T07:37:29;9.48;;;4.72;;
21987;SDS011;11158;53.404;-1.510;2023-08-17T07:40:16;9.93;;;4.90;;
21987;SDS011;11158;53.404;-1.510;2023-08-17T07:43:01;11.85;;;4.88;;
21987;SDS011;11158;53.404;-1.510;2023-08-17T07:45:45;11.88;;;4.63;;
21987;SDS011;11158;53.404;-1.510;2023-08-17T07:48:29;10.88;;;4.80;;
21987;SDS011;11158;53.404;-1.510;2023-08-17T07:51:17;7.40;;;3.47;;
21987;SDS011;11158;53.404;-1.510;2023-08-17T07:54:01;11.70;;;4.63;;
21987;SDS011;11158;53.404;-1.510;2023-08-17T07:56:45;8.98;;;3.90;;
21987;SDS011;11158;53.404;-1.510;2023-08-17T07:59:29;12.82;;;3.53;;
21987;SDS011;11158;53.404;-1.510;2023-08-17T08:02:13;6.18;;;3.13;;
21987;SDS011;11158;53.404;-1.510;2023-08-17T08:04:58;7.03;;;2.65;;
21987;SDS011;11158;53.404;-1.510;2023-08-17T08:07:42;9.93;;;3.63;;
21987;SDS011;11158;53.404;-1.510;2023-08-17T08:10:26;8.30;;;3.53;;
21987;SDS011;11158;53.404;-1.510;2023-08-17T08:13:11;8.82;;;2.67;;
21987;SDS011;11158;53.404;-1.510;2023-08-17T08:15:55;7.03;;;3.17;;
21987;SDS011;11158;53.404;-1.510;2023-08-17T08:18:39;14.00;;;3.20;;
21987;SDS011;11158;53.404;-1.510;2023-08-17T08:21:23;5.13;;;2.90;;
21987;SDS011;11158;53.404;-1.510;2023-08-17T08:24:07;5.72;;;2.53;;
21987;SDS011;11158;53.404;-1.510;2023-08-17T08:26:51;8.27;;;2.65;;
21987;SDS011;11158;53.404;-1.510;2023-08-17T08:29:36;6.97;;;2.75;;
21987;SDS011;11158;53.404;-1.510;2023-08-17T08:32:20;13.30;;;2.45;;
21987;SDS011;11158;53.404;-1.510;2023-08-17T08:35:04;5.68;;;2.50;;
21987;SDS011;11158;53.404;-1.510;2023-08-17T08:37:49;8.32;;;2.28;;
21987;SDS011;11158;53.404;-1.510;2023-08-17T08:40:33;9.52;;;2.92;;
21987;SDS011;11158;53.404;-1.510;2023-08-17T08:43:21;7.55;;;2.78;;
21987;SDS011;11158;53.404;-1.510;2023-08-17T08:46:06;8.57;;;2.33;;
21987;SDS011;11158;53.404;-1.510;2023-08-17T08:48:51;8.63;;;3.00;;
21987;SDS011;11158;53.404;-1.510;2023-08-17T08:51:38;11.32;;;2.70;;
21987;SDS011;11158;53.404;-1.510;2023-08-17T08:54:27;6.60;;;2.30;;
21987;SDS011;11158;53.404;-1.510;2023-08-17T08:57:13;8.27;;;2.30;;
21987;SDS011;11158;53.404;-1.510;2023-08-17T08:59:58;7.07;;;2.35;;
21987;SDS011;11158;53.404;-1.510;2023-08-17T09:02:42;8.35;;;2.58;;
21987;SDS011;11158;53.404;-1.510;2023-08-17T09:05:28;6.22;;;2.50;;
21987;SDS011;11158;53.404;-1.510;2023-08-17T09:08:14;7.15;;;2.60;;
21987;SDS011;11158;53.404;-1.510;2023-08-17T09:11:19;8.57;;;2.63;;
21987;SDS011;11158;53.404;-1.510;2023-08-17T09:14:03;7.65;;;2.42;;
21987;SDS011;11158;53.404;-1.510;2023-08-17T09:16:50;7.97;;;2.67;;
21987;SDS011;11158;53.404;-1.510;2023-08-17T09:19:34;10.05;;;3.35;;
21987;SDS011;11158;53.404;-1.510;2023-08-17T09:22:24;11.25;;;2.92;;
21987;SDS011;11158;53.404;-1.510;2023-08-17T09:25:10;6.00;;;2.72;;
21987;SDS011;11158;53.404;-1.510;2023-08-17T09:27:54;4.22;;;2.20;;
21987;SDS011;11158;53.404;-1.510;2023-08-17T09:30:54;9.95;;;2.20;;
21987;SDS011;11158;53.404;-1.510;2023-08-17T09:33:40;6.00;;;1.80;;
21987;SDS011;11158;53.404;-1.510;2023-08-17T09:36:25;8.55;;;2.13;;
21987;SDS011;11158;53.404;-1.510;2023-08-17T09:39:10;5.13;;;1.77;;
21987;SDS011;11158;53.404;-1.510;2023-08-17T09:41:54;4.53;;;1.92;;
21987;SDS011;11158;53.404;-1.510;2023-08-17T09:44:38;5.85;;;1.92;;
21987;SDS011;11158;53.404;-1.510;2023-08-17T09:47:23;4.18;;;1.63;;
21987;SDS011;11158;53.404;-1.510;2023-08-17T09:50:07;4.35;;;2.35;;
21987;SDS011;11158;53.404;-1.510;2023-08-17T09:52:55;6.93;;;2.03;;
21987;SDS011;11158;53.404;-1.510;2023-08-17T09:55:40;4.65;;;1.90;;
21987;SDS011;11158;53.404;-1.510;2023-08-17T09:58:26;4.20;;;1.65;;
21987;SDS011;11158;53.404;-1.510;2023-08-17T10:01:10;6.10;;;1.73;;
21987;SDS011;11158;53.404;-1.510;2023-08-17T10:03:57;5.18;;;1.40;;
21987;SDS011;11158;53.404;-1.510;2023-08-17T10:06:43;6.15;;;2.00;;
21987;SDS011;11158;53.404;-1.510;2023-08-17T10:09:31;6.90;;;2.97;;
21987;SDS011;11158;53.404;-1.510;2023-08-17T10:12:17;3.45;;;2.00;;
21987;SDS011;11158;53.404;-1.510;2023-08-17T10:15:03;5.30;;;2.20;;
21987;SDS011;11158;53.404;-1.510;2023-08-17T10:21:16;5.22;;;1.90;;
21987;SDS011;11158;53.404;-1.510;2023-08-17T10:24:05;4.13;;;1.70;;
21987;SDS011;11158;53.404;-1.510;2023-08-17T10:26:51;5.38;;;2.38;;
21987;SDS011;11158;53.404;-1.510;2023-08-17T10:29:36;3.38;;;1.70;;
21987;SDS011;11158;53.404;-1.510;2023-08-17T10:32:22;12.32;;;2.03;;
21987;SDS011;11158;53.404;-1.510;2023-08-17T10:35:07;5.63;;;1.60;;
21987;SDS011;11158;53.404;-1.510;2023-08-17T10:37:52;3.55;;;1.60;;
21987;SDS011;11158;53.404;-1.510;2023-08-17T10:40:49;2.15;;;1.23;;
21987;SDS011;11158;53.404;-1.510;2023-08-17T10:43:57;7.03;;;2.10;;
21987;SDS011;11158;53.404;-1.510;2023-08-17T10:46:42;5.55;;;2.08;;
21987;SDS011;11158;53.404;-1.510;2023-08-17T10:49:29;7.43;;;1.73;;
21987;SDS011;11158;53.404;-1.510;2023-08-17T10:52:13;3.00;;;1.20;;
21987;SDS011;11158;53.404;-1.510;2023-08-17T10:54:59;4.07;;;1.45;;
21987;SDS011;11158;53.404;-1.510;2023-08-17T10:57:49;8.23;;;1.63;;
21987;SDS011;11158;53.404;-1.510;2023-08-17T11:00:35;7.78;;;1.92;;
21987;SDS011;11158;53.404;-1.510;2023-08-17T11:03:21;7.32;;;1.50;;
21987;SDS011;11158;53.404;-1.510;2023-08-17T11:06:16;5.22;;;1.48;;
21987;SDS011;11158;53.404;-1.510;2023-08-17T11:09:05;2.88;;;1.30;;
21987;SDS011;11158;53.404;-1.510;2023-08-17T11:11:52;2.20;;;1.10;;
21987;SDS011;11158;53.404;-1.510;2023-08-17T11:14:38;3.30;;;1.50;;
21987;SDS011;11158;53.404;-1.510;2023-08-17T11:17:22;5.50;;;1.50;;
21987;SDS011;11158;53.404;-1.510;2023-08-17T11:20:06;3.47;;;1.30;;
21987;SDS011;11158;53.404;-1.510;2023-08-17T11:22:53;3.25;;;1.60;;
21987;SDS011;11158;53.404;-1.510;2023-08-17T11:25:37;7.50;;;1.30;;
21987;SDS011;11158;53.404;-1.510;2023-08-17T11:28:22;4.80;;;1.20;;
21987;SDS011;11158;53.404;-1.510;2023-08-17T11:31:07;6.82;;;1.52;;
21987;SDS011;11158;53.404;-1.510;2023-08-17T11:33:53;2.63;;;1.38;;
21987;SDS011;11158;53.404;-1.510;2023-08-17T11:36:37;5.85;;;2.05;;
21987;SDS011;11158;53.404;-1.510;2023-08-17T11:39:22;5.00;;;1.20;;
21987;SDS011;11158;53.404;-1.510;2023-08-17T11:42:06;2.92;;;1.10;;
21987;SDS011;11158;53.404;-1.510;2023-08-17T11:44:50;5.15;;;1.55;;
21987;SDS011;11158;53.404;-1.510;2023-08-17T11:47:38;3.95;;;1.48;;
21987;SDS011;11158;53.404;-1.510;2023-08-17T11:50:24;3.83;;;1.85;;
21987;SDS011;11158;53.404;-1.510;2023-08-17T11:53:09;5.57;;;1.42;;
21987;SDS011;11158;53.404;-1.510;2023-08-17T11:55:53;3.33;;;0.95;;
21987;SDS011;11158;53.404;-1.510;2023-08-17T11:58:41;2.70;;;1.27;;
21987;SDS011;11158;53.404;-1.510;2023-08-17T12:01:32;3.60;;;1.00;;
21987;SDS011;11158;53.404;-1.510;2023-08-17T12:04:20;6.30;;;1.67;;
21987;SDS011;11158;53.404;-1.510;2023-08-17T12:07:05;3.63;;;0.80;;
21987;SDS011;11158;53.404;-1.510;2023-08-17T12:09:50;2.60;;;1.20;;
21987;SDS011;11158;53.404;-1.510;2023-08-17T12:12:38;2.70;;;0.85;;
21987;SDS011;11158;53.404;-1.510;2023-08-17T12:15:23;5.35;;;1.20;;
21987;SDS011;11158;53.404;-1.510;2023-08-17T12:18:08;1.55;;;0.85;;
21987;SDS011;11158;53.404;-1.510;2023-08-17T12:20:52;4.25;;;1.00;;
21987;SDS011;11158;53.404;-1.510;2023-08-17T12:23:37;3.30;;;0.93;;
21987;SDS011;11158;53.404;-1.510;2023-08-17T12:26:21;3.40;;;0.88;;
21987;SDS011;11158;53.404;-1.510;2023-08-17T12:29:06;5.25;;;1.48;;
21987;SDS011;11158;53.404;-1.510;2023-08-17T12:31:51;2.05;;;0.95;;
21987;SDS011;11158;53.404;-1.510;2023-08-17T12:34:36;5.63;;;1.17;;
21987;SDS011;11158;53.404;-1.510;2023-08-17T12:37:20;7.07;;;1.20;;
21987;SDS011;11158;53.404;-1.510;2023-08-17T12:40:05;2.10;;;1.35;;
21987;SDS011;11158;53.404;-1.510;2023-08-17T12:42:51;5.25;;;1.33;;
21987;SDS011;11158;53.404;-1.510;2023-08-17T12:45:35;3.53;;;1.52;;
21987;SDS011;11158;53.404;-1.510;2023-08-17T12:48:19;5.35;;;1.70;;
21987;SDS011;11158;53.404;-1.510;2023-08-17T12:51:03;2.58;;;1.52;;
21987;SDS011;11158;53.404;-1.510;2023-08-17T12:53:48;3.75;;;1.40;;
21987;SDS011;11158;53.404;-1.510;2023-08-17T12:56:32;2.58;;;1.10;;
21987;SDS011;11158;53.404;-1.510;2023-08-17T12:59:16;7.70;;;1.90;;
21987;SDS011;11158;53.404;-1.510;2023-08-17T13:02:00;5.47;;;2.90;;
21987;SDS011;11158;53.404;-1.510;2023-08-17T13:04:44;4.50;;;1.70;;
21987;SDS011;11158;53.404;-1.510;2023-08-17T13:07:28;6.30;;;1.20;;
21987;SDS011;11158;53.404;-1.510;2023-08-17T13:10:12;2.38;;;1.05;;
21987;SDS011;11158;53.404;-1.510;2023-08-17T13:12:56;4.05;;;1.02;;
21987;SDS011;11158;53.404;-1.510;2023-08-17T13:15:42;4.60;;;1.42;;
21987;SDS011;11158;53.404;-1.510;2023-08-17T13:18:26;1.98;;;0.95;;
21987;SDS011;11158;53.404;-1.510;2023-08-17T13:21:12;4.10;;;1.00;;
21987;SDS011;11158;53.404;-1.510;2023-08-17T13:23:59;3.72;;;0.90;;
21987;SDS011;11158;53.404;-1.510;2023-08-17T13:26:43;2.30;;;0.90;;
21987;SDS011;11158;53.404;-1.510;2023-08-17T13:29:27;2.45;;;1.08;;
21987;SDS011;11158;53.404;-1.510;2023-08-17T13:32:11;3.47;;;1.05;;
21987;SDS011;11158;53.404;-1.510;2023-08-17T13:34:55;2.72;;;1.10;;
21987;SDS011;11158;53.404;-1.510;2023-08-17T13:37:40;4.25;;;1.17;;
21987;SDS011;11158;53.404;-1.510;2023-08-17T13:40:25;2.40;;;0.85;;
21987;SDS011;11158;53.404;-1.510;2023-08-17T13:43:09;1.63;;;0.70;;
21987;SDS011;11158;53.404;-1.510;2023-08-17T13:45:56;2.92;;;0.90;;
21987;SDS011;11158;53.404;-1.510;2023-08-17T13:48:40;3.42;;;1.00;;
21987;SDS011;11158;53.404;-1.510;2023-08-17T13:51:25;1.25;;;0.68;;
21987;SDS011;11158;53.404;-1.510;2023-08-17T13:54:09;2.28;;;0.90;;
21987;SDS011;11158;53.404;-1.510;2023-08-17T13:56:53;1.50;;;0.98;;
21987;SDS011;11158;53.404;-1.510;2023-08-17T13:59:37;2.60;;;0.95;;
21987;SDS011;11158;53.404;-1.510;2023-08-17T14:02:21;5.50;;;0.88;;
21987;SDS011;11158;53.404;-1.510;2023-08-17T14:05:05;4.57;;;0.90;;
21987;SDS011;11158;53.404;-1.510;2023-08-17T14:07:50;1.45;;;0.82;;
21987;SDS011;11158;53.404;-1.510;2023-08-17T14:10:34;2.78;;;1.15;;
21987;SDS011;11158;53.404;-1.510;2023-08-17T14:13:20;3.00;;;1.00;;
21987;SDS011;11158;53.404;-1.510;2023-08-17T14:16:05;3.70;;;1.00;;
21987;SDS011;11158;53.404;-1.510;2023-08-17T14:18:49;1.67;;;0.70;;
21987;SDS011;11158;53.404;-1.510;2023-08-17T14:21:33;4.53;;;0.80;;
21987;SDS011;11158;53.404;-1.510;2023-08-17T14:24:17;6.70;;;0.98;;
21987;SDS011;11158;53.404;-1.510;2023-08-17T14:27:01;2.85;;;0.60;;
21987;SDS011;11158;53.404;-1.510;2023-08-17T14:29:46;1.80;;;0.80;;
21987;SDS011;11158;53.404;-1.510;2023-08-17T14:32:30;1.98;;;0.82;;
21987;SDS011;11158;53.404;-1.510;2023-08-17T14:35:15;4.70;;;0.75;;
21987;SDS011;11158;53.404;-1.510;2023-08-17T14:37:59;2.08;;;0.90;;
21987;SDS011;11158;53.404;-1.510;2023-08-17T14:40:46;1.70;;;0.60;;
21987;SDS011;11158;53.404;-1.510;2023-08-17T14:43:31;1.17;;;0.70;;
21987;SDS011;11158;53.404;-1.510;2023-08-17T14:46:15;1.20;;;0.73;;
21987;SDS011;11158;53.404;-1.510;2023-08-17T14:49:00;1.50;;;0.73;;
21987;SDS011;11158;53.404;-1.510;2023-08-17T14:51:45;3.33;;;0.90;;
21987;SDS011;11158;53.404;-1.510;2023-08-17T14:54:29;2.50;;;0.85;;
21987;SDS011;11158;53.404;-1.510;2023-08-17T14:57:13;4.60;;;1.27;;
21987;SDS011;11158;53.404;-1.510;2023-08-17T14:59:57;6.65;;;1.13;;
21987;SDS011;11158;53.404;-1.510;2023-08-17T15:02:41;2.13;;;0.82;;
21987;SDS011;11158;53.404;-1.510;2023-08-17T15:05:25;7.65;;;1.10;;
21987;SDS011;11158;53.404;-1.510;2023-08-17T15:08:10;5.20;;;1.30;;
21987;SDS011;11158;53.404;-1.510;2023-08-17T15:10:53;5.07;;;1.25;;
21987;SDS011;11158;53.404;-1.510;2023-08-17T15:13:45;4.43;;;0.90;;
21987;SDS011;11158;53.404;-1.510;2023-08-17T15:16:29;3.25;;;0.70;;
21987;SDS011;11158;53.404;-1.510;2023-08-17T15:19:13;3.28;;;0.68;;
21987;SDS011;11158;53.404;-1.510;2023-08-17T15:21:57;2.38;;;0.80;;
21987;SDS011;11158;53.404;-1.510;2023-08-17T15:24:41;2.13;;;0.73;;
21987;SDS011;11158;53.404;-1.510;2023-08-17T15:27:29;2.08;;;0.80;;
21987;SDS011;11158;53.404;-1.510;2023-08-17T15:30:13;3.00;;;0.90;;
21987;SDS011;11158;53.404;-1.510;2023-08-17T15:32:57;3.70;;;0.70;;
21987;SDS011;11158;53.404;-1.510;2023-08-17T15:35:41;1.38;;;0.65;;
21987;SDS011;11158;53.404;-1.510;2023-08-17T15:38:25;3.58;;;0.68;;
21987;SDS011;11158;53.404;-1.510;2023-08-17T15:41:09;3.35;;;0.82;;
21987;SDS011;11158;53.404;-1.510;2023-08-17T15:43:53;3.38;;;0.80;;
21987;SDS011;11158;53.404;-1.510;2023-08-17T15:46:37;2.50;;;1.10;;
21987;SDS011;11158;53.404;-1.510;2023-08-17T15:49:21;3.90;;;1.27;;
21987;SDS011;11158;53.404;-1.510;2023-08-17T15:52:05;2.75;;;1.40;;
21987;SDS011;11158;53.404;-1.510;2023-08-17T15:54:49;4.25;;;1.35;;
21987;SDS011;11158;53.404;-1.510;2023-08-17T15:57:33;2.28;;;0.80;;
21987;SDS011;11158;53.404;-1.510;2023-08-17T16:00:17;5.30;;;0.88;;
21987;SDS011;11158;53.404;-1.510;2023-08-17T16:03:02;3.25;;;1.05;;
21987;SDS011;11158;53.404;-1.510;2023-08-17T16:05:46;3.92;;;0.95;;
21987;SDS011;11158;53.404;-1.510;2023-08-17T16:08:30;3.80;;;1.20;;
21987;SDS011;11158;53.404;-1.510;2023-08-17T16:11:14;2.95;;;0.80;;
21987;SDS011;11158;53.404;-1.510;2023-08-17T16:13:58;2.65;;;0.90;;